sensor_id;sensor_type;location;lat;lon;timestamp;pressure;altitude;pressure_sealevel;temperature
24639;BMP180;1641;51.306;12.384;2024-02-15T00:01:45;100423.00;;;11.80
24639;BMP180;1641;51.306;12.384;2024-02-15T00:04:10;100411.00;;;11.80
24639;BMP180;1641;51.306;12.384;2024-02-15T00:06:36;100408.00;;;11.90
24639;BMP180;1641;51.306;12.384;2024-02-15T00:09:01;100411.00;;;11.90
24639;BMP180;1641;51.306;12.384;2024-02-15T00:11:27;100418.00;;;11.90
24639;BMP180;1641;51.306;12.384;2024-02-15T00:13:53;100406.00;;;11.90
24639;BMP180;1641;51.306;12.384;2024-02-15T00:16:18;100397.00;;;11.80
24639;BMP180;1641;51.306;12.384;2024-02-15T00:18:44;100412.00;;;11.80
24639;BMP180;1641;51.306;12.384;2024-02-15T00:21:09;100403.00;;;11.90
24639;BMP180;1641;51.306;12.384;2024-02-15T00:23:36;100405.00;;;11.80
24639;BMP180;1641;51.306;12.384;2024-02-15T00:26:01;100414.00;;;11.80
24639;BMP180;1641;51.306;12.384;2024-02-15T00:28:27;100418.00;;;11.70
24639;BMP180;1641;51.306;12.384;2024-02-15T00:30:52;100413.00;;;11.90
24639;BMP180;1641;51.306;12.384;2024-02-15T00:33:18;100409.00;;;12.00
24639;BMP180;1641;51.306;12.384;2024-02-15T00:35:43;100403.00;;;11.90
24639;BMP180;1641;51.306;12.384;2024-02-15T00:38:08;100407.00;;;11.90
24639;BMP180;1641;51.306;12.384;2024-02-15T00:40:34;100402.00;;;11.90
24639;BMP180;1641;51.306;12.384;2024-02-15T00:42:59;100413.00;;;12.00
24639;BMP180;1641;51.306;12.384;2024-02-15T00:45:24;100410.00;;;12.00
24639;BMP180;1641;51.306;12.384;2024-02-15T00:47:50;100409.00;;;12.10
24639;BMP180;1641;51.306;12.384;2024-02-15T00:50:15;100408.00;;;12.20
24639;BMP180;1641;51.306;12.384;2024-02-15T00:52:40;100413.00;;;12.30
24639;BMP180;1641;51.306;12.384;2024-02-15T00:55:06;100411.00;;;12.10
24639;BMP180;1641;51.306;12.384;2024-02-15T00:57:33;100409.00;;;12.00
24639;BMP180;1641;51.306;12.384;2024-02-15T00:59:59;100409.00;;;12.10
24639;BMP180;1641;51.306;12.384;2024-02-15T01:02:25;100401.00;;;12.10
24639;BMP180;1641;51.306;12.384;2024-02-15T01:04:54;100412.00;;;12.30
24639;BMP180;1641;51.306;12.384;2024-02-15T01:07:22;100408.00;;;12.30
24639;BMP180;1641;51.306;12.384;2024-02-15T01:09:51;100411.00;;;12.10
24639;BMP180;1641;51.306;12.384;2024-02-15T01:12:16;100420.00;;;12.20
24639;BMP180;1641;51.306;12.384;2024-02-15T01:14:41;100414.00;;;12.10
24639;BMP180;1641;51.306;12.384;2024-02-15T01:17:08;100410.00;;;11.90
24639;BMP180;1641;51.306;12.384;2024-02-15T01:19:34;100409.00;;;12.10
24639;BMP180;1641;51.306;12.384;2024-02-15T01:21:59;100403.00;;;12.10
24639;BMP180;1641;51.306;12.384;2024-02-15T01:24:24;100401.00;;;12.10
24639;BMP180;1641;51.306;12.384;2024-02-15T01:26:50;100404.00;;;12.20
24639;BMP180;1641;51.306;12.384;2024-02-15T01:29:15;100407.00;;;12.10
24639;BMP180;1641;51.306;12.384;2024-02-15T01:31:40;100381.00;;;12.10
24639;BMP180;1641;51.306;12.384;2024-02-15T01:34:06;100406.00;;;12.10
24639;BMP180;1641;51.306;12.384;2024-02-15T01:36:31;100409.00;;;12.20
24639;BMP180;1641;51.306;12.384;2024-02-15T01:38:56;100406.00;;;12.00
24639;BMP180;1641;51.306;12.384;2024-02-15T01:41:21;100397.00;;;12.10
24639;BMP180;1641;51.306;12.384;2024-02-15T01:43:47;100411.00;;;12.00
24639;BMP180;1641;51.306;12.384;2024-02-15T01:46:14;100399.00;;;12.10
24639;BMP180;1641;51.306;12.384;2024-02-15T01:48:40;100399.00;;;11.90
24639;BMP180;1641;51.306;12.384;2024-02-15T01:51:07;100408.00;;;12.10
24639;BMP180;1641;51.306;12.384;2024-02-15T01:53:32;100396.00;;;12.00
24639;BMP180;1641;51.306;12.384;2024-02-15T01:55:58;100365.00;;;12.00
24639;BMP180;1641;51.306;12.384;2024-02-15T01:58:25;100407.00;;;12.00
24639;BMP180;1641;51.306;12.384;2024-02-15T02:00:51;100382.00;;;12.00
24639;BMP180;1641;51.306;12.384;2024-02-15T02:03:17;100395.00;;;12.10
24639;BMP180;1641;51.306;12.384;2024-02-15T02:05:43;100397.00;;;12.30
24639;BMP180;1641;51.306;12.384;2024-02-15T02:08:08;100393.00;;;12.40
24639;BMP180;1641;51.306;12.384;2024-02-15T02:10:36;100391.00;;;12.40
24639;BMP180;1641;51.306;12.384;2024-02-15T02:13:02;100385.00;;;12.50
24639;BMP180;1641;51.306;12.384;2024-02-15T02:15:28;100393.00;;;12.40
24639;BMP180;1641;51.306;12.384;2024-02-15T02:17:54;100389.00;;;12.20
24639;BMP180;1641;51.306;12.384;2024-02-15T02:20:19;100397.00;;;12.30
24639;BMP180;1641;51.306;12.384;2024-02-15T02:22:46;100396.00;;;12.40
24639;BMP180;1641;51.306;12.384;2024-02-15T02:25:13;100393.00;;;12.60
24639;BMP180;1641;51.306;12.384;2024-02-15T02:27:38;100397.00;;;12.60
24639;BMP180;1641;51.306;12.384;2024-02-15T02:30:05;100402.00;;;12.40
24639;BMP180;1641;51.306;12.384;2024-02-15T02:32:34;100390.00;;;12.30
24639;BMP180;1641;51.306;12.384;2024-02-15T02:35:01;100394.00;;;12.50
24639;BMP180;1641;51.306;12.384;2024-02-15T02:37:26;100370.00;;;12.60
24639;BMP180;1641;51.306;12.384;2024-02-15T02:39:52;100375.00;;;12.40
24639;BMP180;1641;51.306;12.384;2024-02-15T02:42:17;100386.00;;;12.50
24639;BMP180;1641;51.306;12.384;2024-02-15T02:44:42;100384.00;;;12.40
24639;BMP180;1641;51.306;12.384;2024-02-15T02:47:08;100392.00;;;12.30
24639;BMP180;1641;51.306;12.384;2024-02-15T02:49:36;100392.00;;;12.20
24639;BMP180;1641;51.306;12.384;2024-02-15T02:52:04;100379.00;;;12.20
24639;BMP180;1641;51.306;12.384;2024-02-15T02:54:30;100369.00;;;12.30
24639;BMP180;1641;51.306;12.384;2024-02-15T02:56:55;100376.00;;;12.40
24639;BMP180;1641;51.306;12.384;2024-02-15T02:59:21;100379.00;;;12.50
24639;BMP180;1641;51.306;12.384;2024-02-15T03:01:46;100386.00;;;12.50
24639;BMP180;1641;51.306;12.384;2024-02-15T03:04:12;100377.00;;;12.50
24639;BMP180;1641;51.306;12.384;2024-02-15T03:06:37;100378.00;;;12.60
24639;BMP180;1641;51.306;12.384;2024-02-15T03:09:02;100380.00;;;12.60
24639;BMP180;1641;51.306;12.384;2024-02-15T03:11:32;100384.00;;;12.40
24639;BMP180;1641;51.306;12.384;2024-02-15T03:13:57;100381.00;;;12.50
24639;BMP180;1641;51.306;12.384;2024-02-15T03:16:24;100380.00;;;12.30
24639;BMP180;1641;51.306;12.384;2024-02-15T03:18:50;100349.00;;;12.50
24639;BMP180;1641;51.306;12.384;2024-02-15T03:21:16;100382.00;;;12.60
24639;BMP180;1641;51.306;12.384;2024-02-15T03:23:41;100382.00;;;12.60
24639;BMP180;1641;51.306;12.384;2024-02-15T03:26:08;100367.00;;;12.70
24639;BMP180;1641;51.306;12.384;2024-02-15T03:28:33;100372.00;;;12.70
24639;BMP180;1641;51.306;12.384;2024-02-15T03:31:01;100374.00;;;12.70
24639;BMP180;1641;51.306;12.384;2024-02-15T03:33:27;100380.00;;;12.70
24639;BMP180;1641;51.306;12.384;2024-02-15T03:35:58;100365.00;;;12.80
24639;BMP180;1641;51.306;12.384;2024-02-15T03:38:26;100373.00;;;12.70
24639;BMP180;1641;51.306;12.384;2024-02-15T03:40:52;100376.00;;;12.50
24639;BMP180;1641;51.306;12.384;2024-02-15T03:43:17;100372.00;;;12.60
24639;BMP180;1641;51.306;12.384;2024-02-15T03:45:42;100375.00;;;12.50
24639;BMP180;1641;51.306;12.384;2024-02-15T03:48:09;100379.00;;;12.50
24639;BMP180;1641;51.306;12.384;2024-02-15T03:50:35;100382.00;;;12.60
24639;BMP180;1641;51.306;12.384;2024-02-15T03:53:00;100385.00;;;12.60
24639;BMP180;1641;51.306;12.384;2024-02-15T03:55:25;100391.00;;;12.60
24639;BMP180;1641;51.306;12.384;2024-02-15T03:57:51;100401.00;;;12.70
24639;BMP180;1641;51.306;12.384;2024-02-15T04:00:17;100393.00;;;12.70
24639;BMP180;1641;51.306;12.384;2024-02-15T04:02:46;100397.00;;;13.00
24639;BMP180;1641;51.306;12.384;2024-02-15T04:05:14;100398.00;;;13.00
24639;BMP180;1641;51.306;12.384;2024-02-15T04:07:39;100394.00;;;12.90
24639;BMP180;1641;51.306;12.384;2024-02-15T04:10:07;100393.00;;;12.70
24639;BMP180;1641;51.306;12.384;2024-02-15T04:12:33;100401.00;;;12.50
24639;BMP180;1641;51.306;12.384;2024-02-15T04:14:58;100411.00;;;12.80
24639;BMP180;1641;51.306;12.384;2024-02-15T04:17:32;100391.00;;;12.90
24639;BMP180;1641;51.306;12.384;2024-02-15T04:20:00;100400.00;;;13.00
24639;BMP180;1641;51.306;12.384;2024-02-15T04:22:26;100401.00;;;12.80
24639;BMP180;1641;51.306;12.384;2024-02-15T04:24:51;100404.00;;;12.70
24639;BMP180;1641;51.306;12.384;2024-02-15T04:27:16;100407.00;;;12.70
24639;BMP180;1641;51.306;12.384;2024-02-15T04:29:45;100371.00;;;12.70
24639;BMP180;1641;51.306;12.384;2024-02-15T04:32:12;100407.00;;;12.70
24639;BMP180;1641;51.306;12.384;2024-02-15T04:34:41;100381.00;;;12.60
24639;BMP180;1641;51.306;12.384;2024-02-15T04:37:06;100390.00;;;12.60
24639;BMP180;1641;51.306;12.384;2024-02-15T04:39:35;100405.00;;;12.70
24639;BMP180;1641;51.306;12.384;2024-02-15T04:42:02;100383.00;;;12.70
24639;BMP180;1641;51.306;12.384;2024-02-15T04:44:27;100407.00;;;12.70
24639;BMP180;1641;51.306;12.384;2024-02-15T04:46:55;100402.00;;;12.80
24639;BMP180;1641;51.306;12.384;2024-02-15T04:49:21;100408.00;;;12.70
24639;BMP180;1641;51.306;12.384;2024-02-15T04:51:48;100405.00;;;12.60
24639;BMP180;1641;51.306;12.384;2024-02-15T04:54:14;100408.00;;;12.60
24639;BMP180;1641;51.306;12.384;2024-02-15T04:56:42;100408.00;;;12.70
24639;BMP180;1641;51.306;12.384;2024-02-15T04:59:10;100411.00;;;12.60
24639;BMP180;1641;51.306;12.384;2024-02-15T05:01:41;100410.00;;;12.60
24639;BMP180;1641;51.306;12.384;2024-02-15T05:04:09;100407.00;;;12.60
24639;BMP180;1641;51.306;12.384;2024-02-15T05:06:34;100401.00;;;12.60
24639;BMP180;1641;51.306;12.384;2024-02-15T05:09:02;100399.00;;;12.50
24639;BMP180;1641;51.306;12.384;2024-02-15T05:11:32;100410.00;;;12.30
24639;BMP180;1641;51.306;12.384;2024-02-15T05:14:00;100356.00;;;12.30
24639;BMP180;1641;51.306;12.384;2024-02-15T05:16:26;100404.00;;;12.40
24639;BMP180;1641;51.306;12.384;2024-02-15T05:18:51;100411.00;;;12.60
24639;BMP180;1641;51.306;12.384;2024-02-15T05:21:18;100417.00;;;12.60
24639;BMP180;1641;51.306;12.384;2024-02-15T05:23:45;100394.00;;;12.50
24639;BMP180;1641;51.306;12.384;2024-02-15T05:26:11;100409.00;;;12.50
24639;BMP180;1641;51.306;12.384;2024-02-15T05:28:37;100387.00;;;12.40
24639;BMP180;1641;51.306;12.384;2024-02-15T05:31:19;100415.00;;;12.40
24639;BMP180;1641;51.306;12.384;2024-02-15T05:33:49;100430.00;;;12.50
24639;BMP180;1641;51.306;12.384;2024-02-15T05:36:21;100419.00;;;12.60
24639;BMP180;1641;51.306;12.384;2024-02-15T05:38:52;100391.00;;;12.60
24639;BMP180;1641;51.306;12.384;2024-02-15T05:41:20;100420.00;;;12.60
24639;BMP180;1641;51.306;12.384;2024-02-15T05:43:47;100415.00;;;12.70
24639;BMP180;1641;51.306;12.384;2024-02-15T05:46:21;100424.00;;;12.50
24639;BMP180;1641;51.306;12.384;2024-02-15T05:48:46;100421.00;;;12.50
24639;BMP180;1641;51.306;12.384;2024-02-15T05:51:12;100416.00;;;12.30
24639;BMP180;1641;51.306;12.384;2024-02-15T05:53:41;100424.00;;;12.30
24639;BMP180;1641;51.306;12.384;2024-02-15T05:56:08;100413.00;;;12.30
24639;BMP180;1641;51.306;12.384;2024-02-15T05:58:37;100418.00;;;12.30
24639;BMP180;1641;51.306;12.384;2024-02-15T06:01:04;100412.00;;;12.30
24639;BMP180;1641;51.306;12.384;2024-02-15T06:03:35;100406.00;;;12.30
24639;BMP180;1641;51.306;12.384;2024-02-15T06:06:04;100400.00;;;12.10
24639;BMP180;1641;51.306;12.384;2024-02-15T06:08:33;100420.00;;;12.10
24639;BMP180;1641;51.306;12.384;2024-02-15T06:10:59;100414.00;;;12.20
24639;BMP180;1641;51.306;12.384;2024-02-15T06:13:25;100424.00;;;12.30
24639;BMP180;1641;51.306;12.384;2024-02-15T06:15:51;100407.00;;;12.30
24639;BMP180;1641;51.306;12.384;2024-02-15T06:18:20;100416.00;;;12.20
24639;BMP180;1641;51.306;12.384;2024-02-15T06:20:52;100426.00;;;12.20
24639;BMP180;1641;51.306;12.384;2024-02-15T06:23:17;100420.00;;;12.00
24639;BMP180;1641;51.306;12.384;2024-02-15T06:25:43;100425.00;;;12.10
24639;BMP180;1641;51.306;12.384;2024-02-15T06:28:12;100427.00;;;12.10
24639;BMP180;1641;51.306;12.384;2024-02-15T06:30:56;100426.00;;;12.00
24639;BMP180;1641;51.306;12.384;2024-02-15T06:33:41;100430.00;;;12.10
24639;BMP180;1641;51.306;12.384;2024-02-15T06:36:26;100425.00;;;12.00
24639;BMP180;1641;51.306;12.384;2024-02-15T06:39:16;100389.00;;;12.10
24639;BMP180;1641;51.306;12.384;2024-02-15T06:42:01;100424.00;;;12.10
24639;BMP180;1641;51.306;12.384;2024-02-15T06:44:26;100419.00;;;12.10
24639;BMP180;1641;51.306;12.384;2024-02-15T06:46:52;100434.00;;;12.20
24639;BMP180;1641;51.306;12.384;2024-02-15T06:49:17;100415.00;;;12.40
24639;BMP180;1641;51.306;12.384;2024-02-15T06:51:49;100427.00;;;12.30
24639;BMP180;1641;51.306;12.384;2024-02-15T06:54:17;100424.00;;;12.40
24639;BMP180;1641;51.306;12.384;2024-02-15T06:56:46;100432.00;;;12.40
24639;BMP180;1641;51.306;12.384;2024-02-15T06:59:22;100441.00;;;12.50
24639;BMP180;1641;51.306;12.384;2024-02-15T07:01:51;100447.00;;;12.30
24639;BMP180;1641;51.306;12.384;2024-02-15T07:04:23;100432.00;;;12.10
24639;BMP180;1641;51.306;12.384;2024-02-15T07:06:56;100430.00;;;12.30
24639;BMP180;1641;51.306;12.384;2024-02-15T07:09:25;100449.00;;;12.50
24639;BMP180;1641;51.306;12.384;2024-02-15T07:11:51;100448.00;;;12.80
24639;BMP180;1641;51.306;12.384;2024-02-15T07:14:16;100446.00;;;13.00
24639;BMP180;1641;51.306;12.384;2024-02-15T07:16:46;100442.00;;;13.10
24639;BMP180;1641;51.306;12.384;2024-02-15T07:19:18;100443.00;;;12.60
24639;BMP180;1641;51.306;12.384;2024-02-15T07:21:43;100438.00;;;12.60
24639;BMP180;1641;51.306;12.384;2024-02-15T07:24:09;100438.00;;;12.60
24639;BMP180;1641;51.306;12.384;2024-02-15T07:26:37;100433.00;;;12.70
24639;BMP180;1641;51.306;12.384;2024-02-15T07:29:03;100451.00;;;12.90
24639;BMP180;1641;51.306;12.384;2024-02-15T07:31:36;100448.00;;;13.00
24639;BMP180;1641;51.306;12.384;2024-02-15T07:34:02;100440.00;;;13.00
24639;BMP180;1641;51.306;12.384;2024-02-15T07:36:28;100458.00;;;13.20
24639;BMP180;1641;51.306;12.384;2024-02-15T07:38:54;100454.00;;;13.10
24639;BMP180;1641;51.306;12.384;2024-02-15T07:41:27;100457.00;;;13.20
24639;BMP180;1641;51.306;12.384;2024-02-15T07:43:53;100448.00;;;13.10
24639;BMP180;1641;51.306;12.384;2024-02-15T07:46:20;100449.00;;;13.10
24639;BMP180;1641;51.306;12.384;2024-02-15T07:48:47;100442.00;;;13.00
24639;BMP180;1641;51.306;12.384;2024-02-15T07:51:21;100444.00;;;13.00
24639;BMP180;1641;51.306;12.384;2024-02-15T07:53:47;100444.00;;;13.20
24639;BMP180;1641;51.306;12.384;2024-02-15T07:56:14;100439.00;;;13.30
24639;BMP180;1641;51.306;12.384;2024-02-15T07:58:41;100449.00;;;13.50
24639;BMP180;1641;51.306;12.384;2024-02-15T08:01:07;100453.00;;;13.40
24639;BMP180;1641;51.306;12.384;2024-02-15T08:03:39;100452.00;;;13.60
24639;BMP180;1641;51.306;12.384;2024-02-15T08:06:11;100442.00;;;13.80
24639;BMP180;1641;51.306;12.384;2024-02-15T08:08:38;100444.00;;;13.60
24639;BMP180;1641;51.306;12.384;2024-02-15T08:11:06;100456.00;;;13.50
24639;BMP180;1641;51.306;12.384;2024-02-15T08:13:38;100446.00;;;13.40
24639;BMP180;1641;51.306;12.384;2024-02-15T08:16:03;100444.00;;;13.60
24639;BMP180;1641;51.306;12.384;2024-02-15T08:18:30;100450.00;;;13.60
24639;BMP180;1641;51.306;12.384;2024-02-15T08:20:57;100418.00;;;13.50
24639;BMP180;1641;51.306;12.384;2024-02-15T08:23:25;100445.00;;;13.50
24639;BMP180;1641;51.306;12.384;2024-02-15T08:25:58;100437.00;;;13.40
24639;BMP180;1641;51.306;12.384;2024-02-15T08:28:23;100445.00;;;13.60
24639;BMP180;1641;51.306;12.384;2024-02-15T08:30:48;100439.00;;;13.70
24639;BMP180;1641;51.306;12.384;2024-02-15T08:33:13;100420.00;;;14.00
24639;BMP180;1641;51.306;12.384;2024-02-15T08:35:40;100443.00;;;14.10
24639;BMP180;1641;51.306;12.384;2024-02-15T08:38:06;100443.00;;;14.20
24639;BMP180;1641;51.306;12.384;2024-02-15T08:40:31;100429.00;;;14.20
24639;BMP180;1641;51.306;12.384;2024-02-15T08:42:57;100444.00;;;14.20
24639;BMP180;1641;51.306;12.384;2024-02-15T08:45:22;100442.00;;;14.50
24639;BMP180;1641;51.306;12.384;2024-02-15T08:47:53;100448.00;;;14.50
24639;BMP180;1641;51.306;12.384;2024-02-15T08:50:19;100420.00;;;14.50
24639;BMP180;1641;51.306;12.384;2024-02-15T08:52:46;100447.00;;;14.50
24639;BMP180;1641;51.306;12.384;2024-02-15T08:55:12;100441.00;;;14.70
24639;BMP180;1641;51.306;12.384;2024-02-15T08:57:40;100436.00;;;14.70
24639;BMP180;1641;51.306;12.384;2024-02-15T09:00:06;100451.00;;;14.90
24639;BMP180;1641;51.306;12.384;2024-02-15T09:02:44;100445.00;;;15.10
24639;BMP180;1641;51.306;12.384;2024-02-15T09:05:16;100442.00;;;14.90
24639;BMP180;1641;51.306;12.384;2024-02-15T09:07:43;100449.00;;;14.80
24639;BMP180;1641;51.306;12.384;2024-02-15T09:10:09;100443.00;;;14.70
24639;BMP180;1641;51.306;12.384;2024-02-15T09:12:42;100451.00;;;14.80
24639;BMP180;1641;51.306;12.384;2024-02-15T09:15:09;100452.00;;;14.90
24639;BMP180;1641;51.306;12.384;2024-02-15T09:17:38;100432.00;;;14.80
24639;BMP180;1641;51.306;12.384;2024-02-15T09:20:11;100440.00;;;14.70
24639;BMP180;1641;51.306;12.384;2024-02-15T09:22:42;100440.00;;;14.80
24639;BMP180;1641;51.306;12.384;2024-02-15T09:25:08;100423.00;;;15.30
24639;BMP180;1641;51.306;12.384;2024-02-15T09:27:34;100418.00;;;15.60
24639;BMP180;1641;51.306;12.384;2024-02-15T09:29:59;100428.00;;;15.60
24639;BMP180;1641;51.306;12.384;2024-02-15T09:32:24;100427.00;;;15.90
24639;BMP180;1641;51.306;12.384;2024-02-15T09:34:53;100428.00;;;16.40
24639;BMP180;1641;51.306;12.384;2024-02-15T09:37:18;100433.00;;;16.60
24639;BMP180;1641;51.306;12.384;2024-02-15T09:39:43;100437.00;;;17.00
24639;BMP180;1641;51.306;12.384;2024-02-15T09:42:09;100414.00;;;17.30
24639;BMP180;1641;51.306;12.384;2024-02-15T09:44:35;100435.00;;;16.90
24639;BMP180;1641;51.306;12.384;2024-02-15T09:47:04;100449.00;;;16.70
24639;BMP180;1641;51.306;12.384;2024-02-15T09:49:35;100438.00;;;16.10
24639;BMP180;1641;51.306;12.384;2024-02-15T09:52:03;100447.00;;;16.10
24639;BMP180;1641;51.306;12.384;2024-02-15T09:54:30;100448.00;;;15.80
24639;BMP180;1641;51.306;12.384;2024-02-15T09:56:56;100442.00;;;15.80
24639;BMP180;1641;51.306;12.384;2024-02-15T09:59:23;100456.00;;;15.90
24639;BMP180;1641;51.306;12.384;2024-02-15T10:01:52;100450.00;;;15.80
24639;BMP180;1641;51.306;12.384;2024-02-15T10:04:24;100457.00;;;15.70
24639;BMP180;1641;51.306;12.384;2024-02-15T10:06:53;100450.00;;;15.30
24639;BMP180;1641;51.306;12.384;2024-02-15T10:09:29;100459.00;;;15.40
24639;BMP180;1641;51.306;12.384;2024-02-15T10:11:59;100459.00;;;15.70
24639;BMP180;1641;51.306;12.384;2024-02-15T10:14:25;100456.00;;;16.10
24639;BMP180;1641;51.306;12.384;2024-02-15T10:16:52;100456.00;;;16.20
24639;BMP180;1641;51.306;12.384;2024-02-15T10:19:18;100448.00;;;16.40
24639;BMP180;1641;51.306;12.384;2024-02-15T10:21:52;100442.00;;;16.60
24639;BMP180;1641;51.306;12.384;2024-02-15T10:24:22;100450.00;;;16.60
24639;BMP180;1641;51.306;12.384;2024-02-15T10:26:51;100434.00;;;16.70
24639;BMP180;1641;51.306;12.384;2024-02-15T10:29:17;100460.00;;;16.90
24639;BMP180;1641;51.306;12.384;2024-02-15T10:31:59;100453.00;;;17.00
24639;BMP180;1641;51.306;12.384;2024-02-15T10:34:24;100460.00;;;16.70
24639;BMP180;1641;51.306;12.384;2024-02-15T10:37:10;100447.00;;;16.60
24639;BMP180;1641;51.306;12.384;2024-02-15T10:39:36;100454.00;;;16.70
24639;BMP180;1641;51.306;12.384;2024-02-15T10:42:03;100447.00;;;16.40
24639;BMP180;1641;51.306;12.384;2024-02-15T10:44:28;100446.00;;;16.20
24639;BMP180;1641;51.306;12.384;2024-02-15T10:46:53;100437.00;;;16.10
24639;BMP180;1641;51.306;12.384;2024-02-15T10:49:23;100447.00;;;16.30
24639;BMP180;1641;51.306;12.384;2024-02-15T10:51:57;100445.00;;;16.10
24639;BMP180;1641;51.306;12.384;2024-02-15T10:54:46;100430.00;;;16.50
24639;BMP180;1641;51.306;12.384;2024-02-15T10:57:13;100438.00;;;16.90
24639;BMP180;1641;51.306;12.384;2024-02-15T10:59:47;100437.00;;;16.70
24639;BMP180;1641;51.306;12.384;2024-02-15T11:02:27;100431.00;;;16.90
24639;BMP180;1641;51.306;12.384;2024-02-15T11:05:05;100429.00;;;17.00
24639;BMP180;1641;51.306;12.384;2024-02-15T11:07:35;100425.00;;;16.80
24639;BMP180;1641;51.306;12.384;2024-02-15T11:10:01;100432.00;;;17.00
24639;BMP180;1641;51.306;12.384;2024-02-15T11:12:28;100429.00;;;17.00
24639;BMP180;1641;51.306;12.384;2024-02-15T11:14:54;100422.00;;;16.90
24639;BMP180;1641;51.306;12.384;2024-02-15T11:17:45;100426.00;;;17.20
24639;BMP180;1641;51.306;12.384;2024-02-15T11:22:58;100424.00;;;17.50
24639;BMP180;1641;51.306;12.384;2024-02-15T11:25:39;100395.00;;;17.10
24639;BMP180;1641;51.306;12.384;2024-02-15T11:30:52;100409.00;;;17.50
24639;BMP180;1641;51.306;12.384;2024-02-15T11:33:25;100416.00;;;17.50
24639;BMP180;1641;51.306;12.384;2024-02-15T11:36:11;100408.00;;;17.60
24639;BMP180;1641;51.306;12.384;2024-02-15T11:38:38;100406.00;;;17.40
24639;BMP180;1641;51.306;12.384;2024-02-15T11:41:09;100401.00;;;17.80
24639;BMP180;1641;51.306;12.384;2024-02-15T11:43:45;100398.00;;;17.60
24639;BMP180;1641;51.306;12.384;2024-02-15T11:46:13;100402.00;;;17.60
24639;BMP180;1641;51.306;12.384;2024-02-15T11:48:38;100406.00;;;17.80
24639;BMP180;1641;51.306;12.384;2024-02-15T11:51:07;100416.00;;;18.20
24639;BMP180;1641;51.306;12.384;2024-02-15T11:53:36;100401.00;;;18.50
24639;BMP180;1641;51.306;12.384;2024-02-15T11:56:02;100396.00;;;18.30
24639;BMP180;1641;51.306;12.384;2024-02-15T11:58:30;100395.00;;;18.60
24639;BMP180;1641;51.306;12.384;2024-02-15T12:01:08;100393.00;;;18.10
24639;BMP180;1641;51.306;12.384;2024-02-15T12:03:55;100395.00;;;18.20
24639;BMP180;1641;51.306;12.384;2024-02-15T12:06:42;100394.00;;;18.10
24639;BMP180;1641;51.306;12.384;2024-02-15T12:09:26;100392.00;;;17.60
24639;BMP180;1641;51.306;12.384;2024-02-15T12:12:10;100388.00;;;17.90
24639;BMP180;1641;51.306;12.384;2024-02-15T12:15:01;100378.00;;;17.80
24639;BMP180;1641;51.306;12.384;2024-02-15T12:17:45;100370.00;;;17.50
24639;BMP180;1641;51.306;12.384;2024-02-15T12:20:32;100384.00;;;17.30
24639;BMP180;1641;51.306;12.384;2024-02-15T12:22:59;100365.00;;;17.70
24639;BMP180;1641;51.306;12.384;2024-02-15T12:25:30;100373.00;;;17.40
24639;BMP180;1641;51.306;12.384;2024-02-15T12:28:02;100366.00;;;17.40
24639;BMP180;1641;51.306;12.384;2024-02-15T12:30:33;100373.00;;;17.40
24639;BMP180;1641;51.306;12.384;2024-02-15T12:33:13;100369.00;;;17.40
24639;BMP180;1641;51.306;12.384;2024-02-15T12:35:45;100344.00;;;17.10
24639;BMP180;1641;51.306;12.384;2024-02-15T12:38:17;100374.00;;;17.20
24639;BMP180;1641;51.306;12.384;2024-02-15T12:40:52;100377.00;;;17.20
24639;BMP180;1641;51.306;12.384;2024-02-15T12:43:25;100359.00;;;17.00
24639;BMP180;1641;51.306;12.384;2024-02-15T12:45:51;100339.00;;;16.90
24639;BMP180;1641;51.306;12.384;2024-02-15T12:48:26;100317.00;;;17.10
24639;BMP180;1641;51.306;12.384;2024-02-15T12:50:51;100336.00;;;17.30
24639;BMP180;1641;51.306;12.384;2024-02-15T12:53:26;100306.00;;;17.00
24639;BMP180;1641;51.306;12.384;2024-02-15T12:55:57;100353.00;;;17.00
24639;BMP180;1641;51.306;12.384;2024-02-15T12:58:22;100346.00;;;17.20
24639;BMP180;1641;51.306;12.384;2024-02-15T13:00:54;100344.00;;;17.20
24639;BMP180;1641;51.306;12.384;2024-02-15T13:03:26;100357.00;;;17.40
24639;BMP180;1641;51.306;12.384;2024-02-15T13:05:51;100316.00;;;17.70
24639;BMP180;1641;51.306;12.384;2024-02-15T13:08:17;100325.00;;;17.60
24639;BMP180;1641;51.306;12.384;2024-02-15T13:10:43;100341.00;;;17.80
24639;BMP180;1641;51.306;12.384;2024-02-15T13:13:09;100336.00;;;17.60
24639;BMP180;1641;51.306;12.384;2024-02-15T13:15:42;100332.00;;;17.70
24639;BMP180;1641;51.306;12.384;2024-02-15T13:18:10;100301.00;;;17.70
24639;BMP180;1641;51.306;12.384;2024-02-15T13:20:36;100332.00;;;17.80
24639;BMP180;1641;51.306;12.384;2024-02-15T13:23:12;100340.00;;;17.30
24639;BMP180;1641;51.306;12.384;2024-02-15T13:25:53;100340.00;;;17.50
24639;BMP180;1641;51.306;12.384;2024-02-15T13:28:21;100332.00;;;17.30
24639;BMP180;1641;51.306;12.384;2024-02-15T13:30:56;100311.00;;;17.40
24639;BMP180;1641;51.306;12.384;2024-02-15T13:33:30;100331.00;;;17.60
24639;BMP180;1641;51.306;12.384;2024-02-15T13:35:57;100333.00;;;18.10
24639;BMP180;1641;51.306;12.384;2024-02-15T13:38:22;100323.00;;;18.00
24639;BMP180;1641;51.306;12.384;2024-02-15T13:40:54;100309.00;;;17.70
24639;BMP180;1641;51.306;12.384;2024-02-15T13:43:28;100324.00;;;17.50
24639;BMP180;1641;51.306;12.384;2024-02-15T13:45:53;100323.00;;;17.80
24639;BMP180;1641;51.306;12.384;2024-02-15T13:48:18;100318.00;;;17.80
24639;BMP180;1641;51.306;12.384;2024-02-15T13:50:44;100318.00;;;17.60
24639;BMP180;1641;51.306;12.384;2024-02-15T13:53:09;100312.00;;;17.80
24639;BMP180;1641;51.306;12.384;2024-02-15T13:55:35;100281.00;;;18.00
24639;BMP180;1641;51.306;12.384;2024-02-15T13:58:02;100286.00;;;18.00
24639;BMP180;1641;51.306;12.384;2024-02-15T14:00:28;100280.00;;;18.20
24639;BMP180;1641;51.306;12.384;2024-02-15T14:03:00;100311.00;;;18.20
24639;BMP180;1641;51.306;12.384;2024-02-15T14:05:26;100293.00;;;17.70
24639;BMP180;1641;51.306;12.384;2024-02-15T14:07:56;100313.00;;;17.50
24639;BMP180;1641;51.306;12.384;2024-02-15T14:10:22;100295.00;;;17.70